createdAt,value
2019-03-27T00:01:56.521Z,4.42
2019-03-27T00:04:27.387Z,4.47
2019-03-27T00:06:58.194Z,4.67
2019-03-27T00:09:29.027Z,4.25
2019-03-27T00:11:59.838Z,4.55
2019-03-27T00:14:30.623Z,4.42
2019-03-27T00:17:01.490Z,4.08
2019-03-27T00:19:32.312Z,4.12
2019-03-27T00:22:03.103Z,4.28
2019-03-27T00:24:33.900Z,4.40
2019-03-27T00:27:04.754Z,4.00
2019-03-27T00:29:35.483Z,3.80
2019-03-27T00:32:06.253Z,3.85
2019-03-27T00:34:36.987Z,3.45
2019-03-27T00:37:07.725Z,4.17
2019-03-27T00:39:38.630Z,4.40
2019-03-27T00:42:09.315Z,4.10
2019-03-27T00:44:40.038Z,4.08
2019-03-27T00:47:10.751Z,3.90
2019-03-27T00:49:42.548Z,3.85
2019-03-27T00:52:13.275Z,4.20
2019-03-27T00:54:44.020Z,3.83
2019-03-27T00:57:14.834Z,3.90
2019-03-27T00:59:46.653Z,4.12
2019-03-27T01:02:17.499Z,4.12
2019-03-27T01:04:48.373Z,3.60
2019-03-27T01:07:19.391Z,3.87
2019-03-27T01:09:50.257Z,3.47
2019-03-27T01:12:21.178Z,4.05
2019-03-27T01:14:52.016Z,3.80
2019-03-27T01:17:22.727Z,4.25
2019-03-27T01:19:53.484Z,5.20
2019-03-27T01:22:24.275Z,5.00
2019-03-27T01:24:55.096Z,4.53
2019-03-27T01:27:25.881Z,5.12
2019-03-27T01:29:56.699Z,5.10
2019-03-27T01:32:27.415Z,4.92
2019-03-27T01:34:58.154Z,5.03
2019-03-27T01:37:28.997Z,5.67
2019-03-27T01:39:59.733Z,5.30
2019-03-27T01:42:30.484Z,6.45
2019-03-27T01:45:01.421Z,6.42
2019-03-27T01:47:32.141Z,5.15
2019-03-27T01:50:02.956Z,4.40
2019-03-27T01:52:33.751Z,4.58
2019-03-27T01:55:04.782Z,3.83
2019-03-27T01:57:35.706Z,4.42
2019-03-27T02:00:07.501Z,4.47
2019-03-27T02:02:38.239Z,3.90
2019-03-27T02:05:09.170Z,3.70
2019-03-27T02:07:39.989Z,4.42
2019-03-27T02:10:11.483Z,3.40
2019-03-27T02:12:42.205Z,4.78
2019-03-27T02:15:13.103Z,3.85
2019-03-27T02:17:43.828Z,4.45
2019-03-27T02:20:14.735Z,3.95
2019-03-27T02:22:45.608Z,4.20
2019-03-27T02:25:16.453Z,4.35
2019-03-27T02:27:48.195Z,3.80
2019-03-27T02:30:19.025Z,3.90
2019-03-27T02:32:49.863Z,4.37
2019-03-27T02:35:20.893Z,4.17
2019-03-27T02:37:51.603Z,3.77
2019-03-27T02:40:22.359Z,4.37
2019-03-27T02:42:53.145Z,3.83
2019-03-27T02:45:25.025Z,4.33
2019-03-27T02:47:55.739Z,4.15
2019-03-27T02:50:26.576Z,4.72
2019-03-27T02:52:57.328Z,5.37
2019-03-27T02:55:28.127Z,5.92
2019-03-27T02:57:58.928Z,5.80
2019-03-27T03:00:29.933Z,6.37
2019-03-27T03:03:00.731Z,5.65
2019-03-27T03:05:31.557Z,5.70
2019-03-27T03:08:02.373Z,5.40
2019-03-27T03:10:33.098Z,4.95
2019-03-27T03:13:04.040Z,5.50
2019-03-27T03:15:34.828Z,5.08
2019-03-27T03:18:05.747Z,4.65
2019-03-27T03:20:36.619Z,5.15
2019-03-27T03:23:07.472Z,5.30
2019-03-27T03:25:38.203Z,4.80
2019-03-27T03:28:08.987Z,4.65
2019-03-27T03:30:39.740Z,4.60
2019-03-27T03:33:10.539Z,4.78
2019-03-27T03:35:41.339Z,4.20
2019-03-27T03:38:12.069Z,4.22
2019-03-27T03:40:43.947Z,4.30
2019-03-27T03:43:14.735Z,5.08
2019-03-27T03:45:45.561Z,5.08
2019-03-27T03:48:16.292Z,6.05
2019-03-27T03:50:47.415Z,5.37
2019-03-27T03:53:18.203Z,5.50
2019-03-27T03:55:49.412Z,5.53
2019-03-27T03:58:20.906Z,5.37
2019-03-27T04:00:52.892Z,5.42
2019-03-27T04:03:27.942Z,6.20
2019-03-27T04:05:58.830Z,6.37
2019-03-27T04:08:29.741Z,5.28
2019-03-27T04:11:00.602Z,4.80
2019-03-27T04:13:31.586Z,5.15
2019-03-27T04:16:02.307Z,4.70
2019-03-27T04:18:35.813Z,5.58
2019-03-27T04:21:06.521Z,4.85
2019-03-27T04:23:37.253Z,5.20
2019-03-27T04:26:10.437Z,4.90
2019-03-27T04:28:40.443Z,5.00
2019-03-27T04:31:11.220Z,4.90
2019-03-27T04:33:41.993Z,5.17
2019-03-27T04:36:12.721Z,5.08
2019-03-27T04:38:43.468Z,5.37
2019-03-27T04:41:14.296Z,4.83
2019-03-27T04:43:45.017Z,4.35
2019-03-27T04:46:16.133Z,4.55
2019-03-27T04:48:47.014Z,4.50
2019-03-27T04:51:17.758Z,4.53
2019-03-27T04:53:48.480Z,4.90
2019-03-27T04:56:19.222Z,4.22
2019-03-27T04:58:49.937Z,3.90
2019-03-27T05:01:20.904Z,4.45
2019-03-27T05:03:51.809Z,5.35
2019-03-27T05:06:22.556Z,4.75
2019-03-27T05:08:53.280Z,4.95
2019-03-27T05:11:24.064Z,4.25
2019-03-27T05:13:54.874Z,4.55
2019-03-27T05:16:25.599Z,5.90
2019-03-27T05:18:56.330Z,4.90
2019-03-27T05:21:27.111Z,5.33
2019-03-27T05:23:57.832Z,5.78
2019-03-27T05:26:28.584Z,5.50
2019-03-27T05:28:59.306Z,6.30
2019-03-27T05:31:30.053Z,5.97
2019-03-27T05:34:00.830Z,5.47
2019-03-27T05:36:31.604Z,5.58
2019-03-27T05:39:02.323Z,5.08
2019-03-27T05:41:33.136Z,5.60
2019-03-27T05:44:04.015Z,4.67
2019-03-27T05:46:34.892Z,5.30
2019-03-27T05:49:05.651Z,5.00
2019-03-27T05:51:36.459Z,4.47
2019-03-27T05:54:07.327Z,4.33
2019-03-27T05:56:38.329Z,4.55
2019-03-27T05:59:09.029Z,4.70
2019-03-27T06:01:41.049Z,5.50
2019-03-27T06:04:11.792Z,5.03
2019-03-27T06:06:42.528Z,9.80
2019-03-27T06:09:13.351Z,9.03
2019-03-27T06:11:44.132Z,6.17
2019-03-27T06:14:14.961Z,6.42
2019-03-27T06:16:45.777Z,6.00
2019-03-27T06:19:16.525Z,5.83
2019-03-27T06:21:47.511Z,5.50
2019-03-27T06:24:18.228Z,6.67
2019-03-27T06:26:49.123Z,6.10
2019-03-27T06:29:19.951Z,5.28
2019-03-27T06:31:50.715Z,5.50
2019-03-27T06:34:21.445Z,5.53
2019-03-27T06:36:52.424Z,5.60
2019-03-27T06:39:23.207Z,5.53
2019-03-27T06:41:54.067Z,5.42
2019-03-27T06:44:24.889Z,8.75
2019-03-27T06:46:56.876Z,6.20
2019-03-27T06:49:27.696Z,11.22
2019-03-27T06:51:58.449Z,5.22
2019-03-27T06:54:29.187Z,5.30
2019-03-27T06:57:01.282Z,5.67
2019-03-27T06:59:32.203Z,6.47
2019-03-27T07:02:03.013Z,6.92
2019-03-27T07:04:35.874Z,7.30
2019-03-27T07:07:06.703Z,9.63
2019-03-27T07:09:37.448Z,8.08
2019-03-27T07:12:20.397Z,6.72
2019-03-27T07:14:40.878Z,6.85
2019-03-27T07:17:11.809Z,6.35
2019-03-27T07:19:42.561Z,8.60
2019-03-27T07:22:13.387Z,7.17
2019-03-27T07:24:44.211Z,6.17
2019-03-27T07:27:15.166Z,6.70
2019-03-27T07:29:45.916Z,6.62
2019-03-27T07:32:16.681Z,5.85
2019-03-27T07:34:47.417Z,6.40
2019-03-27T07:37:18.233Z,6.40
2019-03-27T07:39:48.991Z,11.22
2019-03-27T07:42:19.783Z,7.00
2019-03-27T07:44:51.600Z,7.50
2019-03-27T07:47:22.594Z,7.50
2019-03-27T07:49:53.506Z,7.42
2019-03-27T07:52:24.260Z,6.83
2019-03-27T07:54:55.016Z,7.00
2019-03-27T07:57:25.939Z,7.00
2019-03-27T07:59:56.691Z,7.83
2019-03-27T08:02:27.739Z,7.92
2019-03-27T08:04:58.785Z,8.28
2019-03-27T08:07:29.629Z,7.33
2019-03-27T08:10:00.748Z,6.58
2019-03-27T08:12:31.516Z,8.05
2019-03-27T08:15:02.387Z,7.87
2019-03-27T08:17:33.209Z,7.35
2019-03-27T08:20:04.468Z,7.72
2019-03-27T08:22:36.537Z,7.87
2019-03-27T08:25:08.015Z,8.55
2019-03-27T08:27:40.738Z,7.72
2019-03-27T08:30:12.985Z,8.90
2019-03-27T08:32:43.821Z,8.93
2019-03-27T08:35:14.644Z,9.10
2019-03-27T08:37:45.438Z,8.05
2019-03-27T08:40:31.182Z,8.35
2019-03-27T08:43:21.077Z,8.00
2019-03-27T08:45:53.449Z,7.20
2019-03-27T08:48:34.498Z,9.30
2019-03-27T08:51:12.343Z,7.40
2019-03-27T08:53:49.261Z,9.00
2019-03-27T08:56:20.179Z,8.93
2019-03-27T08:58:50.933Z,9.23
2019-03-27T09:01:21.690Z,9.55
2019-03-27T09:03:52.525Z,8.80
2019-03-27T09:06:33.716Z,9.65
2019-03-27T09:08:55.920Z,8.90
2019-03-27T09:11:26.766Z,8.75
2019-03-27T09:13:57.629Z,8.73
2019-03-27T09:16:28.470Z,8.80
2019-03-27T09:18:59.263Z,10.90
2019-03-27T09:21:30.105Z,11.83
2019-03-27T09:24:00.972Z,11.05
2019-03-27T09:26:31.790Z,10.68
2019-03-27T09:29:02.714Z,11.73
2019-03-27T09:31:44.100Z,11.95
2019-03-27T09:34:06.286Z,13.43
2019-03-27T09:36:37.474Z,13.75
2019-03-27T09:39:10.180Z,14.53
2019-03-27T09:41:41.041Z,14.55
2019-03-27T09:44:12.290Z,12.88
2019-03-27T09:46:43.209Z,13.22
2019-03-27T09:49:14.147Z,14.15
2019-03-27T09:51:44.978Z,13.85
2019-03-27T09:54:15.737Z,13.83
2019-03-27T09:56:46.663Z,14.10
2019-03-27T09:59:17.507Z,14.65
2019-03-27T10:01:48.356Z,14.15
2019-03-27T10:04:19.193Z,13.68
2019-03-27T10:06:50.049Z,13.80
2019-03-27T10:09:20.909Z,14.58
2019-03-27T10:11:51.807Z,13.32
2019-03-27T10:14:22.570Z,13.90
2019-03-27T10:16:53.331Z,15.40
2019-03-27T10:19:24.181Z,13.35
2019-03-27T10:21:55.025Z,16.48
2019-03-27T10:24:25.982Z,15.38
2019-03-27T10:26:56.828Z,16.57
2019-03-27T10:29:27.713Z,15.68
2019-03-27T10:31:58.508Z,14.25
2019-03-27T10:34:29.789Z,15.18
2019-03-27T10:37:00.618Z,16.20
2019-03-27T10:39:32.562Z,15.88
2019-03-27T10:42:03.680Z,15.78
2019-03-27T10:44:34.464Z,17.10
2019-03-27T10:47:05.375Z,16.12
2019-03-27T10:49:36.268Z,17.50
2019-03-27T10:52:07.204Z,17.35
2019-03-27T10:54:40.354Z,16.80
2019-03-27T10:57:11.168Z,16.65
2019-03-27T10:59:42.067Z,16.27
2019-03-27T11:02:12.909Z,16.48
2019-03-27T11:04:43.805Z,15.43
2019-03-27T11:07:14.632Z,16.37
2019-03-27T11:09:46.351Z,15.38
2019-03-27T11:12:17.138Z,16.30
2019-03-27T11:14:48.113Z,17.45
2019-03-27T11:17:20.443Z,17.17
2019-03-27T11:19:51.221Z,17.55
2019-03-27T11:22:21.971Z,17.55
2019-03-27T11:24:53.125Z,16.75
2019-03-27T11:27:23.962Z,16.45
2019-03-27T11:29:54.750Z,14.30
2019-03-27T11:32:25.510Z,12.33
2019-03-27T11:34:56.449Z,13.88
2019-03-27T11:37:28.333Z,14.58
2019-03-27T11:39:59.192Z,13.68
2019-03-27T11:42:30.039Z,14.63
2019-03-27T11:45:01.957Z,13.80
2019-03-27T11:47:32.784Z,13.93
2019-03-27T11:50:03.754Z,13.55
2019-03-27T11:52:34.521Z,12.18
2019-03-27T11:55:05.881Z,12.88
2019-03-27T11:57:37.634Z,14.70
2019-03-27T12:00:09.823Z,14.25
2019-03-27T12:02:40.888Z,14.20
2019-03-27T12:05:11.980Z,13.60
2019-03-27T12:07:42.866Z,14.10
2019-03-27T12:10:14.096Z,13.60
2019-03-27T12:12:48.071Z,13.22
2019-03-27T12:15:21.858Z,13.28
2019-03-27T12:17:52.645Z,12.18
2019-03-27T12:20:23.591Z,12.28
2019-03-27T12:22:57.982Z,11.80
2019-03-27T12:25:27.008Z,12.88
2019-03-27T12:27:58.152Z,13.40
2019-03-27T12:30:29.042Z,13.65
2019-03-27T12:33:00.014Z,12.45
2019-03-27T12:35:31.973Z,11.95
2019-03-27T12:38:04.400Z,12.70
2019-03-27T12:40:38.722Z,11.88
2019-03-27T12:43:12.030Z,11.88
2019-03-27T12:45:43.638Z,11.45
2019-03-27T12:48:15.241Z,11.95
2019-03-27T12:50:46.802Z,10.78
2019-03-27T12:53:18.418Z,9.35
2019-03-27T12:55:50.174Z,10.20
2019-03-27T12:58:21.733Z,9.38
2019-03-27T13:00:53.340Z,10.18
2019-03-27T13:03:24.918Z,9.95
2019-03-27T13:05:56.605Z,9.88
2019-03-27T13:08:28.068Z,10.95
2019-03-27T13:11:00.708Z,9.78
2019-03-27T13:13:33.252Z,10.70
2019-03-27T13:16:04.839Z,10.40
2019-03-27T13:18:36.331Z,10.82
2019-03-27T13:21:08.015Z,9.88
2019-03-27T13:23:39.557Z,10.08
2019-03-27T13:26:11.261Z,10.32
2019-03-27T13:28:48.683Z,10.95
2019-03-27T13:31:16.201Z,11.33
2019-03-27T13:33:50.217Z,10.10
2019-03-27T13:36:21.295Z,8.80
2019-03-27T13:38:53.773Z,9.40
2019-03-27T13:41:25.394Z,9.35
2019-03-27T13:43:56.947Z,9.00
2019-03-27T13:46:28.461Z,8.65
2019-03-27T13:49:00.109Z,8.73
2019-03-27T13:51:40.376Z,9.63
2019-03-27T13:54:05.044Z,9.13
2019-03-27T13:56:36.631Z,8.73
2019-03-27T13:59:08.353Z,8.40
2019-03-27T14:01:39.980Z,8.58
2019-03-27T14:04:11.680Z,9.10
2019-03-27T14:06:44.952Z,9.58
2019-03-27T14:09:17.696Z,9.43
2019-03-27T14:11:49.263Z,9.20
2019-03-27T14:14:20.857Z,8.83
2019-03-27T14:16:52.485Z,8.75
2019-03-27T14:19:24.095Z,7.85
2019-03-27T14:21:55.741Z,8.88
2019-03-27T14:24:27.241Z,8.83
2019-03-27T14:26:59.109Z,8.35
2019-03-27T14:29:30.786Z,9.38
2019-03-27T14:32:02.434Z,9.05
2019-03-27T14:34:34.132Z,9.03
2019-03-27T14:37:05.689Z,8.60
2019-03-27T14:39:37.230Z,9.08
2019-03-27T14:42:08.786Z,9.50
2019-03-27T14:44:40.270Z,8.50
2019-03-27T14:47:11.926Z,8.78
2019-03-27T14:49:43.455Z,9.00
2019-03-27T14:52:15.374Z,8.63
2019-03-27T14:54:47.178Z,7.40
2019-03-27T14:57:18.785Z,8.78
2019-03-27T14:59:50.348Z,7.83
2019-03-27T15:02:21.851Z,7.30
2019-03-27T15:04:53.427Z,7.25
2019-03-27T15:07:25.067Z,8.05
2019-03-27T15:09:56.710Z,7.08
2019-03-27T15:12:28.271Z,7.25
2019-03-27T15:14:59.643Z,7.90
2019-03-27T15:17:31.045Z,7.70
2019-03-27T15:20:02.562Z,14.95
2019-03-27T15:22:33.991Z,9.38
2019-03-27T15:25:05.538Z,8.40
2019-03-27T15:27:36.866Z,8.10
2019-03-27T15:30:12.759Z,8.18
2019-03-27T15:32:43.442Z,7.78
2019-03-27T15:35:14.714Z,7.30
2019-03-27T15:37:46.072Z,6.83
2019-03-27T15:40:20.562Z,7.53
2019-03-27T15:42:51.965Z,7.08
2019-03-27T15:45:23.313Z,7.30
2019-03-27T15:47:55.267Z,6.92
2019-03-27T15:50:26.683Z,7.60
2019-03-27T15:52:58.278Z,6.20
2019-03-27T15:55:29.703Z,7.28
2019-03-27T15:58:01.243Z,6.95
2019-03-27T16:00:32.715Z,6.90
2019-03-27T16:03:06.567Z,7.50
2019-03-27T16:05:38.035Z,6.72
2019-03-27T16:08:10.577Z,7.20
2019-03-27T16:10:42.052Z,7.37
2019-03-27T16:13:13.664Z,6.80
2019-03-27T16:15:45.197Z,6.80
2019-03-27T16:18:17.782Z,6.55
2019-03-27T16:24:44.254Z,5.78
2019-03-27T16:27:15.519Z,6.87
2019-03-27T16:29:46.671Z,6.37
2019-03-27T16:32:17.825Z,7.45
2019-03-27T16:34:49.097Z,7.08
2019-03-27T16:37:20.278Z,6.58
2019-03-27T16:39:53.154Z,7.30
2019-03-27T16:42:24.399Z,6.70
2019-03-27T16:44:55.516Z,6.75
2019-03-27T16:47:26.647Z,6.53
2019-03-27T16:49:57.837Z,6.85
2019-03-27T16:52:29.243Z,6.78
2019-03-27T16:55:00.356Z,7.30
2019-03-27T16:57:31.563Z,6.47
2019-03-27T17:00:02.681Z,7.47
2019-03-27T17:02:34.156Z,6.67
2019-03-27T17:05:06.018Z,6.25
2019-03-27T17:07:37.283Z,7.00
2019-03-27T17:10:08.712Z,6.85
2019-03-27T17:12:39.947Z,7.20
2019-03-27T17:15:11.450Z,7.47
2019-03-27T17:17:42.617Z,7.37
2019-03-27T17:20:13.779Z,6.45
2019-03-27T17:22:45.057Z,7.25
2019-03-27T17:25:16.273Z,6.60
2019-03-27T17:27:47.523Z,7.20
2019-03-27T17:30:19.278Z,7.37
2019-03-27T17:32:50.795Z,7.28
2019-03-27T17:35:22.030Z,7.05
2019-03-27T17:37:53.073Z,6.30
2019-03-27T17:40:24.438Z,6.75
2019-03-27T17:42:55.507Z,7.20
2019-03-27T17:45:26.882Z,6.55
2019-03-27T17:47:59.198Z,6.67
2019-03-27T17:50:31.301Z,6.75
2019-03-27T17:53:02.523Z,6.47
2019-03-27T17:55:33.682Z,7.75
2019-03-27T17:58:04.964Z,6.85
2019-03-27T18:00:56.244Z,8.08
2019-03-27T18:03:27.371Z,6.87
2019-03-27T18:05:58.607Z,7.35
2019-03-27T18:08:29.990Z,8.70
2019-03-27T18:11:01.156Z,6.67
2019-03-27T18:13:32.335Z,7.72
2019-03-27T18:16:03.492Z,7.62
2019-03-27T18:18:34.662Z,7.83
2019-03-27T18:21:05.983Z,7.60
2019-03-27T18:23:45.809Z,7.87
2019-03-27T18:26:10.172Z,7.58
2019-03-27T18:28:41.251Z,7.95
2019-03-27T18:31:12.504Z,8.08
2019-03-27T18:33:43.740Z,8.23
2019-03-27T18:36:14.970Z,7.50
2019-03-27T18:38:46.170Z,6.58
2019-03-27T18:41:17.518Z,8.85
2019-03-27T18:43:48.679Z,9.63
2019-03-27T18:46:19.913Z,8.78
2019-03-27T18:48:53.906Z,8.65
2019-03-27T18:51:26.171Z,8.85
2019-03-27T18:53:59.844Z,10.10
2019-03-27T18:56:30.111Z,10.70
2019-03-27T18:59:01.231Z,10.18
2019-03-27T19:01:32.436Z,9.78
2019-03-27T19:04:03.619Z,10.80
2019-03-27T19:06:35.837Z,10.80
2019-03-27T19:09:08.649Z,10.63
2019-03-27T19:11:40.116Z,10.15
2019-03-27T19:14:11.486Z,10.53
2019-03-27T19:16:42.713Z,10.78
2019-03-27T19:19:13.856Z,10.70
2019-03-27T19:21:45.097Z,10.03
2019-03-27T19:24:17.056Z,10.63
2019-03-27T19:26:49.666Z,11.20
2019-03-27T19:29:20.848Z,11.97
2019-03-27T19:31:52.085Z,11.73
2019-03-27T19:34:23.477Z,10.58
2019-03-27T19:36:54.695Z,10.98
2019-03-27T19:39:25.931Z,9.70
2019-03-27T19:41:57.269Z,9.55
2019-03-27T19:44:28.550Z,10.68
2019-03-27T19:46:59.655Z,11.68
2019-03-27T19:49:30.936Z,11.83
2019-03-27T19:52:02.123Z,11.80
2019-03-27T19:54:34.400Z,10.68
2019-03-27T19:57:05.616Z,9.98
2019-03-27T19:59:36.715Z,11.65
2019-03-27T20:02:07.920Z,10.65
2019-03-27T20:04:39.079Z,11.03
2019-03-27T20:07:10.399Z,9.75
2019-03-27T20:09:41.650Z,9.35
2019-03-27T20:12:12.907Z,10.75
2019-03-27T20:14:44.057Z,10.40
2019-03-27T20:17:16.189Z,10.98
2019-03-27T20:19:47.359Z,10.40
2019-03-27T20:22:18.761Z,9.03
2019-03-27T20:24:50.073Z,9.95
2019-03-27T20:27:21.329Z,9.55
2019-03-27T20:29:52.607Z,9.98
2019-03-27T20:32:23.771Z,9.93
2019-03-27T20:34:54.917Z,9.78
2019-03-27T20:37:26.471Z,10.28
2019-03-27T20:39:57.699Z,9.05
2019-03-27T20:42:28.983Z,9.68
2019-03-27T20:45:00.379Z,9.88
2019-03-27T20:47:32.982Z,9.73
2019-03-27T20:50:04.748Z,9.40
2019-03-27T20:52:35.879Z,10.65
2019-03-27T20:55:07.841Z,10.23
2019-03-27T20:57:40.209Z,9.75
2019-03-27T21:00:12.191Z,10.10
2019-03-27T21:02:43.699Z,10.05
2019-03-27T21:05:15.413Z,9.68
2019-03-27T21:07:46.486Z,9.90
2019-03-27T21:10:18.323Z,10.18
2019-03-27T21:12:51.073Z,9.73
2019-03-27T21:15:22.645Z,9.73
2019-03-27T21:17:53.816Z,9.15
2019-03-27T21:20:25.022Z,10.35
2019-03-27T21:22:56.110Z,9.15
2019-03-27T21:25:27.312Z,9.60
2019-03-27T21:27:58.394Z,9.58
2019-03-27T21:30:29.507Z,9.78
2019-03-27T21:33:01.009Z,9.50
2019-03-27T21:35:32.182Z,9.18
2019-03-27T21:38:03.342Z,11.10
2019-03-27T21:40:35.064Z,10.50
2019-03-27T21:43:06.309Z,9.33
2019-03-27T21:45:38.457Z,9.60
2019-03-27T21:48:09.595Z,9.25
2019-03-27T21:50:40.821Z,9.90
2019-03-27T21:53:12.013Z,8.78
2019-03-27T21:55:43.340Z,9.83
2019-03-27T21:58:14.424Z,9.90
2019-03-27T22:00:45.488Z,9.33
2019-03-27T22:03:16.511Z,8.35
2019-03-27T22:05:48.110Z,9.30
2019-03-27T22:08:19.427Z,9.10
2019-03-27T22:10:50.699Z,9.13
2019-03-27T22:13:27.734Z,10.05
2019-03-27T22:15:59.295Z,8.75
2019-03-27T22:18:30.516Z,7.95
2019-03-27T22:21:01.599Z,8.45
2019-03-27T22:23:32.816Z,9.13
2019-03-27T22:26:03.984Z,8.53
2019-03-27T22:28:35.239Z,9.28
2019-03-27T22:31:06.377Z,8.60
2019-03-27T22:33:37.515Z,8.88
2019-03-27T22:36:08.758Z,8.33
2019-03-27T22:38:39.875Z,9.38
2019-03-27T22:41:11.007Z,8.73
2019-03-27T22:43:42.392Z,8.75
2019-03-27T22:46:13.552Z,8.65
2019-03-27T22:48:45.933Z,8.65
2019-03-27T22:51:17.160Z,9.20
2019-03-27T22:53:48.260Z,7.78
2019-03-27T22:56:19.354Z,8.75
2019-03-27T22:58:50.514Z,7.05
2019-03-27T23:01:21.642Z,7.90
2019-03-27T23:03:52.774Z,7.97
2019-03-27T23:06:24.137Z,6.78
2019-03-27T23:08:55.402Z,6.85
2019-03-27T23:11:27.442Z,6.85
2019-03-27T23:13:58.630Z,7.00
2019-03-27T23:16:29.854Z,6.83
2019-03-27T23:19:00.934Z,6.83
2019-03-27T23:21:32.122Z,6.75
2019-03-27T23:24:03.160Z,6.30
2019-03-27T23:26:35.391Z,6.90
2019-03-27T23:29:06.551Z,6.92
2019-03-27T23:31:37.699Z,6.97
2019-03-27T23:34:08.872Z,7.15
2019-03-27T23:36:40.099Z,6.00
2019-03-27T23:39:11.594Z,7.05
2019-03-27T23:41:42.895Z,6.85
2019-03-27T23:44:14.808Z,7.25
2019-03-27T23:46:46.084Z,7.58
2019-03-27T23:49:17.309Z,7.12
2019-03-27T23:51:48.346Z,6.92
2019-03-27T23:54:19.522Z,7.70
2019-03-27T23:56:50.648Z,7.50
2019-03-27T23:59:21.790Z,6.78
